createdAt,value
2018-12-19T00:00:21.286Z,5.70
2018-12-19T00:02:48.850Z,5.70
2018-12-19T00:05:16.555Z,5.70
2018-12-19T00:07:44.110Z,5.60
2018-12-19T00:10:11.646Z,5.80
2018-12-19T00:12:39.203Z,5.70
2018-12-19T00:15:07.058Z,5.70
2018-12-19T00:17:34.615Z,5.70
2018-12-19T00:20:02.187Z,5.60
2018-12-19T00:22:29.743Z,5.60
2018-12-19T00:24:57.286Z,5.60
2018-12-19T00:27:24.874Z,5.50
2018-12-19T00:29:52.631Z,5.60
2018-12-19T00:32:20.444Z,5.60
2018-12-19T00:34:48.060Z,5.60
2018-12-19T00:37:15.675Z,5.50
2018-12-19T00:39:43.210Z,5.50
2018-12-19T00:42:11.605Z,5.50
2018-12-19T00:44:39.182Z,5.60
2018-12-19T00:47:06.716Z,5.50
2018-12-19T00:49:35.092Z,5.50
2018-12-19T00:52:02.722Z,5.60
2018-12-19T00:54:30.423Z,5.50
2018-12-19T00:56:57.978Z,5.70
2018-12-19T00:59:25.534Z,5.60
2018-12-19T01:01:53.018Z,5.60
2018-12-19T01:04:20.584Z,5.50
2018-12-19T01:06:48.149Z,5.60
2018-12-19T01:09:16.094Z,5.60
2018-12-19T01:11:43.790Z,5.60
2018-12-19T01:14:11.445Z,5.60
2018-12-19T01:16:38.982Z,5.60
2018-12-19T01:19:06.516Z,5.60
2018-12-19T01:21:34.062Z,5.70
2018-12-19T01:24:01.628Z,5.60
2018-12-19T01:26:29.183Z,5.50
2018-12-19T01:28:56.780Z,5.60
2018-12-19T01:31:24.306Z,5.60
2018-12-19T01:33:51.848Z,5.50
2018-12-19T01:36:19.384Z,5.40
2018-12-19T01:38:46.959Z,5.60
2018-12-19T01:41:14.574Z,5.60
2018-12-19T01:43:42.129Z,5.60
2018-12-19T01:46:09.691Z,5.70
2018-12-19T01:48:37.230Z,5.70
2018-12-19T01:51:04.774Z,5.50
2018-12-19T01:53:32.299Z,5.70
2018-12-19T01:55:59.906Z,5.70
2018-12-19T01:58:27.421Z,5.70
2018-12-19T02:00:54.976Z,5.70
2018-12-19T02:03:22.509Z,5.70
2018-12-19T02:05:50.079Z,5.80
2018-12-19T02:08:17.622Z,5.80
2018-12-19T02:10:45.183Z,5.80
2018-12-19T02:13:12.708Z,5.80
2018-12-19T02:15:40.268Z,5.70
2018-12-19T02:18:07.803Z,5.80
2018-12-19T02:20:35.338Z,5.90
2018-12-19T02:23:03.594Z,5.70
2018-12-19T02:25:31.229Z,5.90
2018-12-19T02:27:58.805Z,5.80
2018-12-19T02:30:26.394Z,5.90
2018-12-19T02:32:53.934Z,5.80
2018-12-19T02:35:21.526Z,5.90
2018-12-19T02:37:49.194Z,5.80
2018-12-19T02:40:16.823Z,5.90
2018-12-19T02:42:44.398Z,5.90
2018-12-19T02:45:11.932Z,5.80
2018-12-19T02:47:39.505Z,5.80
2018-12-19T02:50:07.076Z,5.80
2018-12-19T02:52:34.656Z,5.80
2018-12-19T02:55:02.193Z,5.70
2018-12-19T02:57:29.717Z,5.80
2018-12-19T02:59:57.283Z,5.70
2018-12-19T03:02:24.796Z,5.70
2018-12-19T03:04:52.344Z,5.70
2018-12-19T03:07:19.887Z,5.50
2018-12-19T03:09:47.502Z,5.50
2018-12-19T03:12:15.038Z,5.70
2018-12-19T03:14:42.594Z,5.60
2018-12-19T03:17:10.103Z,5.60
2018-12-19T03:19:37.683Z,5.60
2018-12-19T03:22:05.215Z,5.60
2018-12-19T03:24:32.796Z,5.60
2018-12-19T03:27:00.350Z,5.60
2018-12-19T03:29:27.924Z,5.50
2018-12-19T03:31:55.450Z,5.60
2018-12-19T03:34:23.066Z,5.50
2018-12-19T03:36:50.672Z,5.60
2018-12-19T03:39:18.282Z,5.50
2018-12-19T03:41:45.910Z,5.60
2018-12-19T03:44:13.477Z,5.70
2018-12-19T03:46:41.033Z,5.70
2018-12-19T03:49:08.581Z,5.80
2018-12-19T03:51:36.175Z,5.90
2018-12-19T03:54:03.818Z,5.70
2018-12-19T03:56:31.383Z,5.70
2018-12-19T03:58:58.924Z,5.60
2018-12-19T04:01:26.494Z,5.70
2018-12-19T04:03:54.040Z,5.70
2018-12-19T04:06:21.573Z,5.60
2018-12-19T04:08:49.096Z,5.70
2018-12-19T04:11:16.626Z,5.50
2018-12-19T04:13:44.150Z,5.60
2018-12-19T04:16:11.742Z,5.60
2018-12-19T04:18:39.312Z,5.60
2018-12-19T04:21:06.927Z,5.60
2018-12-19T04:23:34.741Z,5.60
2018-12-19T04:26:02.367Z,5.60
2018-12-19T04:28:29.923Z,5.60
2018-12-19T04:30:57.482Z,5.70
2018-12-19T04:33:25.024Z,5.60
2018-12-19T04:35:52.859Z,5.80
2018-12-19T04:38:20.676Z,5.70
2018-12-19T04:40:48.220Z,5.80
2018-12-19T04:43:15.749Z,5.70
2018-12-19T04:45:43.300Z,5.80
2018-12-19T04:48:10.870Z,5.90
2018-12-19T04:50:38.489Z,5.90
2018-12-19T04:53:06.045Z,5.90
2018-12-19T04:55:33.651Z,6.00
2018-12-19T04:58:01.238Z,6.10
2018-12-19T05:00:28.830Z,6.10
2018-12-19T05:02:56.423Z,6.10
2018-12-19T05:05:24.000Z,6.10
2018-12-19T05:10:18.394Z,6.10
2018-12-19T05:12:45.929Z,6.20
2018-12-19T05:15:13.458Z,6.10
2018-12-19T05:17:41.016Z,6.20
2018-12-19T05:20:11.051Z,6.20
2018-12-19T05:22:38.586Z,6.20
2018-12-19T05:25:10.502Z,6.20
2018-12-19T05:27:38.075Z,6.20
2018-12-19T05:30:08.015Z,6.20
2018-12-19T05:32:35.666Z,6.30
2018-12-19T05:35:04.781Z,6.30
2018-12-19T05:37:32.356Z,6.10
2018-12-19T05:39:59.931Z,6.10
2018-12-19T05:42:27.478Z,6.10
2018-12-19T05:44:55.043Z,6.20
2018-12-19T05:47:22.700Z,6.20
2018-12-19T05:49:50.792Z,6.20
2018-12-19T05:52:19.881Z,6.30
2018-12-19T05:54:47.794Z,6.30
2018-12-19T05:57:15.537Z,6.30
2018-12-19T05:59:43.071Z,6.30
2018-12-19T06:02:10.666Z,6.30
2018-12-19T06:04:38.230Z,6.20
2018-12-19T06:07:05.838Z,6.10
2018-12-19T06:09:33.412Z,6.10
2018-12-19T06:12:00.987Z,6.00
2018-12-19T06:14:28.521Z,6.00
2018-12-19T06:16:56.556Z,6.00
2018-12-19T06:19:24.138Z,6.00
2018-12-19T06:21:51.687Z,6.00
2018-12-19T06:24:19.281Z,6.00
2018-12-19T06:26:46.823Z,6.10
2018-12-19T06:29:14.371Z,6.10
2018-12-19T06:31:41.897Z,6.10
2018-12-19T06:34:09.440Z,6.20
2018-12-19T06:36:37.021Z,6.20
2018-12-19T06:39:07.030Z,6.20
2018-12-19T06:41:34.711Z,6.30
2018-12-19T06:44:02.257Z,6.40
2018-12-19T06:46:29.662Z,6.40
2018-12-19T06:48:57.350Z,6.40
2018-12-19T06:51:24.965Z,6.50
2018-12-19T06:53:52.485Z,6.50
2018-12-19T06:56:20.179Z,6.60
2018-12-19T06:58:47.692Z,6.60
2018-12-19T07:01:15.315Z,6.60
2018-12-19T07:03:42.900Z,6.70
2018-12-19T07:06:10.496Z,6.70
2018-12-19T07:08:38.110Z,6.70
2018-12-19T07:11:05.634Z,6.70
2018-12-19T07:13:33.232Z,6.80
2018-12-19T07:16:00.767Z,7.00
2018-12-19T07:18:28.322Z,7.00
2018-12-19T07:20:55.996Z,7.10
2018-12-19T07:23:23.540Z,7.30
2018-12-19T07:25:51.206Z,7.40
2018-12-19T07:28:18.846Z,7.60
2018-12-19T07:33:57.117Z,7.80
2018-12-19T07:36:35.720Z,7.80
2018-12-19T07:42:23.883Z,8.00
2018-12-19T07:45:00.177Z,8.00
2018-12-19T07:47:29.745Z,8.10
2018-12-19T07:49:57.515Z,8.10
2018-12-19T07:52:25.229Z,8.10
2018-12-19T07:54:53.033Z,8.10
2018-12-19T07:57:20.848Z,8.20
2018-12-19T07:59:48.709Z,8.20
2018-12-19T08:02:16.417Z,8.20
2018-12-19T08:04:44.559Z,8.30
2018-12-19T08:07:12.248Z,8.30
2018-12-19T08:09:39.963Z,8.30
2018-12-19T08:12:07.739Z,8.30
2018-12-19T08:14:35.471Z,8.30
2018-12-19T08:17:03.268Z,8.30
2018-12-19T08:19:31.011Z,8.30
2018-12-19T08:21:58.676Z,8.30
2018-12-19T08:24:26.623Z,8.40
2018-12-19T08:26:54.392Z,8.30
2018-12-19T08:29:22.334Z,8.40
2018-12-19T08:31:50.266Z,8.40
2018-12-19T08:34:18.034Z,8.40
2018-12-19T08:36:45.969Z,8.30
2018-12-19T08:39:14.114Z,8.10
2018-12-19T08:41:42.052Z,8.10
2018-12-19T08:44:09.704Z,8.00
2018-12-19T08:46:37.414Z,8.10
2018-12-19T08:49:05.080Z,8.10
2018-12-19T08:51:32.793Z,8.10
2018-12-19T08:54:00.502Z,8.20
2018-12-19T08:56:28.303Z,8.20
2018-12-19T08:58:56.031Z,8.20
2018-12-19T09:01:23.839Z,8.20
2018-12-19T09:03:51.663Z,8.20
2018-12-19T09:06:19.428Z,8.20
2018-12-19T09:08:47.072Z,8.30
2018-12-19T09:11:14.819Z,8.30
2018-12-19T09:13:42.594Z,8.30
2018-12-19T09:16:10.257Z,8.30
2018-12-19T09:18:38.082Z,8.40
2018-12-19T09:21:05.815Z,8.40
2018-12-19T09:23:33.459Z,8.50
2018-12-19T09:26:01.184Z,8.40
2018-12-19T09:28:29.042Z,8.50
2018-12-19T09:30:56.699Z,8.60
2018-12-19T09:33:27.426Z,8.60
2018-12-19T09:35:54.349Z,8.70
2018-12-19T09:38:22.044Z,8.80
2018-12-19T09:40:49.882Z,8.80
2018-12-19T09:43:17.595Z,9.20
2018-12-19T09:45:45.404Z,9.80
2018-12-19T09:48:13.184Z,10.00
2018-12-19T09:50:41.266Z,10.20
2018-12-19T09:53:09.076Z,10.30
2018-12-19T09:55:36.888Z,10.40
2018-12-19T09:58:04.965Z,10.30
2018-12-19T10:00:33.140Z,10.20
2018-12-19T10:03:01.156Z,10.20
2018-12-19T10:05:29.682Z,10.00
2018-12-19T10:07:57.573Z,9.80
2018-12-19T10:10:25.403Z,9.80
2018-12-19T10:12:53.339Z,9.90
2018-12-19T10:18:03.027Z,9.80
2018-12-19T10:20:31.141Z,9.90
2018-12-19T10:23:00.096Z,9.80
2018-12-19T10:25:27.852Z,9.80
2018-12-19T10:27:55.494Z,9.90
2018-12-19T10:30:23.465Z,9.90
2018-12-19T10:32:53.261Z,9.80
2018-12-19T10:35:21.016Z,9.80
2018-12-19T10:37:48.761Z,9.80
2018-12-19T10:40:16.587Z,9.70
2018-12-19T10:42:44.422Z,9.70
2018-12-19T10:45:12.216Z,9.60
2018-12-19T10:47:40.033Z,9.60
2018-12-19T10:50:08.006Z,9.60
2018-12-19T10:52:35.812Z,9.60
2018-12-19T10:55:04.616Z,9.80
2018-12-19T10:57:32.573Z,10.00
2018-12-19T11:00:00.429Z,9.90
2018-12-19T11:02:28.308Z,9.90
2018-12-19T11:04:56.221Z,10.10
2018-12-19T11:07:24.075Z,10.20
2018-12-19T11:09:51.928Z,10.20
2018-12-19T11:12:19.747Z,10.20
2018-12-19T11:14:47.701Z,10.40
2018-12-19T11:17:15.692Z,10.50
2018-12-19T11:19:43.412Z,10.50
2018-12-19T11:22:12.766Z,10.60
2018-12-19T11:24:40.741Z,10.60
2018-12-19T11:27:08.497Z,10.60
2018-12-19T11:29:36.373Z,10.60
2018-12-19T11:32:04.249Z,10.60
2018-12-19T11:34:33.475Z,10.50
2018-12-19T11:37:01.179Z,10.50
2018-12-19T11:39:28.995Z,10.60
2018-12-19T11:41:56.811Z,10.60
2018-12-19T11:44:24.586Z,10.60
2018-12-19T11:46:53.135Z,10.70
2018-12-19T11:49:22.945Z,10.70
2018-12-19T11:51:50.608Z,10.60
2018-12-19T11:54:18.437Z,10.70
2018-12-19T11:56:56.718Z,10.90
2018-12-19T11:59:24.372Z,11.00
2018-12-19T12:01:52.153Z,11.10
2018-12-19T12:04:20.472Z,11.10
2018-12-19T12:06:48.537Z,11.10
2018-12-19T12:09:16.738Z,11.10
2018-12-19T12:11:45.737Z,11.20
2018-12-19T12:14:14.847Z,11.10
2018-12-19T12:16:44.265Z,11.00
2018-12-19T12:19:12.538Z,11.00
2018-12-19T12:21:50.877Z,11.00
2018-12-19T12:24:22.818Z,11.00
2018-12-19T12:26:52.500Z,11.00
2018-12-19T12:29:21.859Z,11.00
2018-12-19T12:32:18.133Z,11.00
2018-12-19T12:35:00.803Z,11.00
2018-12-19T12:42:35.894Z,10.90
2018-12-19T12:45:04.984Z,10.90
2018-12-19T12:47:47.903Z,10.90
2018-12-19T12:50:40.559Z,10.80
2018-12-19T12:53:10.056Z,10.80
2018-12-19T12:55:38.128Z,10.70
2018-12-19T12:58:07.807Z,10.80
2018-12-19T13:00:35.774Z,10.80
2018-12-19T13:03:03.639Z,10.80
2018-12-19T13:05:31.487Z,10.80
2018-12-19T13:08:09.744Z,10.80
2018-12-19T13:10:49.154Z,10.80
2018-12-19T13:13:16.978Z,10.70
2018-12-19T13:15:46.070Z,10.70
2018-12-19T13:18:14.630Z,10.70
2018-12-19T13:20:44.307Z,10.70
2018-12-19T13:23:12.115Z,10.80
2018-12-19T13:25:40.015Z,10.70
2018-12-19T13:28:07.867Z,10.80
2018-12-19T13:30:35.697Z,10.70
2018-12-19T13:33:03.480Z,10.70
2018-12-19T13:35:31.282Z,10.80
2018-12-19T13:37:59.047Z,10.70
2018-12-19T13:40:26.885Z,10.80
2018-12-19T13:42:55.065Z,10.80
2018-12-19T13:45:22.798Z,10.90
2018-12-19T13:47:50.529Z,11.00
2018-12-19T13:50:18.204Z,11.00
2018-12-19T13:52:45.900Z,11.00
2018-12-19T13:55:13.721Z,11.10
2018-12-19T13:57:41.388Z,11.00
2018-12-19T14:00:09.768Z,11.00
2018-12-19T14:02:37.553Z,11.00
2018-12-19T14:05:05.576Z,11.00
2018-12-19T14:07:33.218Z,10.90
2018-12-19T14:10:01.095Z,10.90
2018-12-19T14:12:28.780Z,10.90
2018-12-19T14:14:56.454Z,10.80
2018-12-19T14:17:24.276Z,10.70
2018-12-19T14:19:52.032Z,10.60
2018-12-19T14:22:19.794Z,10.50
2018-12-19T14:24:47.618Z,10.50
2018-12-19T14:27:15.452Z,10.50
2018-12-19T14:29:43.148Z,10.40
2018-12-19T14:32:11.063Z,10.40
2018-12-19T14:34:38.784Z,10.40
2018-12-19T14:37:07.464Z,10.40
2018-12-19T14:39:35.348Z,10.40
2018-12-19T14:42:03.103Z,10.30
2018-12-19T14:44:31.762Z,10.30
2018-12-19T14:47:00.555Z,10.30
2018-12-19T14:49:28.309Z,10.40
2018-12-19T14:51:56.067Z,10.40
2018-12-19T14:54:23.825Z,10.30
2018-12-19T14:56:51.513Z,10.30
2018-12-19T14:59:19.330Z,10.30
2018-12-19T15:01:47.056Z,10.30
2018-12-19T15:04:14.705Z,10.30
2018-12-19T15:06:42.370Z,10.30
2018-12-19T15:09:10.205Z,10.20
2018-12-19T15:11:37.985Z,10.30
2018-12-19T15:14:06.700Z,10.10
2018-12-19T15:16:34.692Z,10.00
2018-12-19T15:19:02.943Z,9.90
2018-12-19T15:21:31.426Z,9.90
2018-12-19T15:24:09.526Z,9.80
2018-12-19T15:26:37.674Z,9.70
2018-12-19T15:29:05.686Z,9.70
2018-12-19T15:34:13.146Z,9.70
2018-12-19T15:36:42.286Z,9.60
2018-12-19T15:39:10.031Z,9.60
2018-12-19T15:41:37.723Z,9.60
2018-12-19T15:44:06.382Z,9.50
2018-12-19T15:46:34.150Z,9.50
2018-12-19T15:49:01.832Z,9.50
2018-12-19T15:51:29.566Z,9.50
2018-12-19T15:53:58.177Z,9.40
2018-12-19T15:56:26.117Z,9.50
2018-12-19T15:58:53.891Z,9.50
2018-12-19T16:01:21.546Z,9.50
2018-12-19T16:03:49.123Z,9.40
2018-12-19T16:06:16.750Z,9.50
2018-12-19T16:08:44.532Z,9.60
2018-12-19T16:11:12.275Z,9.50
2018-12-19T16:13:39.981Z,9.50
2018-12-19T16:16:07.766Z,9.60
2018-12-19T16:18:35.494Z,9.50
2018-12-19T16:21:03.300Z,9.50
2018-12-19T16:23:30.931Z,9.50
2018-12-19T16:25:58.578Z,9.50
2018-12-19T16:28:26.372Z,9.40
2018-12-19T16:30:54.130Z,9.40
2018-12-19T16:33:21.747Z,9.40
2018-12-19T16:35:49.405Z,9.40
2018-12-19T16:38:18.356Z,9.40
2018-12-19T16:40:46.365Z,9.20
2018-12-19T16:43:14.025Z,9.20
2018-12-19T16:45:41.645Z,9.20
2018-12-19T16:48:09.981Z,9.20
2018-12-19T16:50:37.817Z,9.20
2018-12-19T16:53:05.408Z,9.20
2018-12-19T16:55:33.135Z,9.20
2018-12-19T16:58:00.814Z,9.10
2018-12-19T17:00:28.504Z,9.00
2018-12-19T17:02:56.133Z,8.80
2018-12-19T17:05:23.799Z,8.80
2018-12-19T17:07:51.400Z,8.70
2018-12-19T17:10:19.166Z,8.60
2018-12-19T17:12:52.574Z,8.60
2018-12-19T17:15:17.286Z,8.60
2018-12-19T17:17:45.060Z,8.70
2018-12-19T17:20:12.765Z,8.70
2018-12-19T17:22:40.485Z,8.70
2018-12-19T17:25:08.159Z,8.70
2018-12-19T17:27:35.953Z,8.60
2018-12-19T17:30:04.263Z,8.70
2018-12-19T17:32:32.064Z,8.60
2018-12-19T17:34:59.738Z,8.70
2018-12-19T17:37:27.400Z,8.60
2018-12-19T17:39:55.035Z,8.50
2018-12-19T17:42:22.712Z,8.40
2018-12-19T17:44:50.379Z,8.20
2018-12-19T17:47:18.200Z,8.10
2018-12-19T17:49:45.805Z,8.00
2018-12-19T17:52:13.484Z,7.90
2018-12-19T17:54:41.276Z,7.90
2018-12-19T17:57:09.053Z,8.10
2018-12-19T17:59:36.683Z,8.00
2018-12-19T18:02:04.525Z,8.10
2018-12-19T18:04:32.439Z,7.90
2018-12-19T18:07:00.101Z,7.90
2018-12-19T18:09:27.969Z,7.90
2018-12-19T18:11:55.644Z,7.90
2018-12-19T18:14:23.322Z,7.90
2018-12-19T18:16:50.955Z,7.90
2018-12-19T18:19:23.299Z,7.80
2018-12-19T18:21:48.567Z,7.80
2018-12-19T18:24:16.442Z,7.80
2018-12-19T18:26:44.064Z,7.80
2018-12-19T18:29:12.003Z,7.90
2018-12-19T18:31:39.646Z,8.00
2018-12-19T18:34:07.380Z,8.20
2018-12-19T18:36:35.056Z,8.20
2018-12-19T18:39:03.330Z,7.90
2018-12-19T18:41:31.245Z,8.30
2018-12-19T18:43:59.304Z,8.30
2018-12-19T18:46:26.995Z,8.30
2018-12-19T18:48:54.671Z,8.30
2018-12-19T18:51:22.437Z,8.30
2018-12-19T18:53:50.253Z,8.30
2018-12-19T18:56:17.893Z,8.10
2018-12-19T18:58:45.680Z,8.00
2018-12-19T19:01:13.576Z,7.80
2018-12-19T19:03:41.710Z,7.70
2018-12-19T19:06:09.477Z,7.60
2018-12-19T19:11:05.300Z,7.30
2018-12-19T19:18:28.751Z,7.20
2018-12-19T19:20:56.509Z,7.20
2018-12-19T19:23:24.159Z,7.20
2018-12-19T19:25:51.978Z,7.10
2018-12-19T19:28:19.778Z,7.10
2018-12-19T19:30:47.578Z,7.00
2018-12-19T19:33:15.367Z,7.00
2018-12-19T19:35:43.078Z,6.90
2018-12-19T19:38:10.932Z,6.90
2018-12-19T19:40:38.599Z,6.80
2018-12-19T19:43:06.400Z,6.80
2018-12-19T19:45:34.198Z,6.80
2018-12-19T19:48:01.962Z,6.70
2018-12-19T19:50:29.720Z,6.70
2018-12-19T19:52:57.363Z,6.70
2018-12-19T19:55:25.138Z,6.60
2018-12-19T19:57:52.953Z,6.60
2018-12-19T20:00:22.748Z,6.60
2018-12-19T20:02:50.503Z,6.60
2018-12-19T20:05:18.456Z,6.60
2018-12-19T20:07:46.132Z,6.50
2018-12-19T20:10:13.809Z,6.50
2018-12-19T20:12:41.747Z,6.40
2018-12-19T20:15:09.452Z,6.40
2018-12-19T20:17:37.225Z,6.40
2018-12-19T20:20:05.417Z,6.50
2018-12-19T20:22:33.244Z,6.60
2018-12-19T20:25:01.001Z,6.70
2018-12-19T20:27:28.756Z,6.90
2018-12-19T20:29:56.529Z,7.00
2018-12-19T20:32:24.370Z,7.00
2018-12-19T20:34:52.131Z,7.10
2018-12-19T20:37:19.793Z,7.20
2018-12-19T20:39:47.400Z,7.20
2018-12-19T20:42:15.144Z,7.20
2018-12-19T20:44:42.838Z,7.30
2018-12-19T20:47:10.615Z,7.30
2018-12-19T20:49:38.408Z,7.40
2018-12-19T20:52:06.163Z,7.40
2018-12-19T20:54:34.004Z,7.40
2018-12-19T20:57:01.745Z,7.50
2018-12-19T20:59:29.548Z,7.50
2018-12-19T21:01:57.497Z,7.50
2018-12-19T21:04:25.303Z,7.50
2018-12-19T21:06:52.936Z,7.50
2018-12-19T21:09:20.609Z,7.50
2018-12-19T21:11:48.305Z,7.50
2018-12-19T21:14:15.999Z,7.60
2018-12-19T21:16:49.377Z,7.60
2018-12-19T21:19:17.164Z,7.60
2018-12-19T21:21:45.391Z,7.70
2018-12-19T21:24:13.126Z,7.70
2018-12-19T21:26:40.917Z,7.70
2018-12-19T21:29:08.874Z,7.60
2018-12-19T21:31:36.743Z,7.60
2018-12-19T21:34:04.519Z,7.50
2018-12-19T21:36:32.314Z,7.40
2018-12-19T21:39:00.010Z,7.40
2018-12-19T21:41:27.723Z,7.40
2018-12-19T21:43:55.619Z,7.30
2018-12-19T21:46:23.372Z,7.20
2018-12-19T21:48:51.497Z,7.20
2018-12-19T21:51:19.284Z,7.20
2018-12-19T21:53:47.157Z,7.20
2018-12-19T21:56:15.054Z,7.10
2018-12-19T21:58:42.814Z,7.10
2018-12-19T22:01:10.537Z,7.20
2018-12-19T22:03:38.359Z,7.20
2018-12-19T22:06:06.041Z,7.30
2018-12-19T22:08:33.970Z,7.20
2018-12-19T22:11:01.735Z,7.30
2018-12-19T22:13:29.536Z,7.20
2018-12-19T22:15:57.429Z,7.20
2018-12-19T22:18:31.047Z,7.10
2018-12-19T22:20:58.768Z,7.00
2018-12-19T22:23:26.630Z,7.00
2018-12-19T22:25:54.441Z,6.90
2018-12-19T22:28:22.293Z,6.80
2018-12-19T22:30:50.083Z,6.60
2018-12-19T22:33:17.780Z,6.60
2018-12-19T22:35:45.621Z,6.50
2018-12-19T22:38:13.452Z,6.50
2018-12-19T22:40:41.193Z,6.50
2018-12-19T22:43:09.124Z,6.60
2018-12-19T22:45:37.061Z,6.70
2018-12-19T22:48:04.855Z,6.70
2018-12-19T22:50:32.670Z,6.80
2018-12-19T22:53:00.535Z,6.80
2018-12-19T22:55:28.157Z,6.80
2018-12-19T22:57:55.829Z,6.70
2018-12-19T23:00:23.980Z,6.50
2018-12-19T23:02:57.355Z,6.50
2018-12-19T23:05:30.813Z,6.40
2018-12-19T23:07:58.530Z,6.40
2018-12-19T23:10:26.285Z,6.40
2018-12-19T23:12:54.080Z,6.30
2018-12-19T23:15:21.866Z,6.30
2018-12-19T23:17:49.711Z,6.30
2018-12-19T23:20:17.588Z,6.30
2018-12-19T23:22:45.324Z,6.30
2018-12-19T23:25:13.297Z,6.30
2018-12-19T23:27:41.104Z,6.30
2018-12-19T23:30:09.229Z,6.40
2018-12-19T23:32:37.034Z,6.30
2018-12-19T23:35:05.141Z,6.30
2018-12-19T23:37:32.970Z,6.30
2018-12-19T23:40:00.730Z,6.30
2018-12-19T23:42:28.550Z,6.30
2018-12-19T23:44:56.438Z,6.20
2018-12-19T23:47:24.381Z,6.20
2018-12-19T23:49:52.205Z,6.20
2018-12-19T23:52:19.922Z,6.20
2018-12-19T23:54:47.757Z,6.20
2018-12-19T23:57:15.610Z,6.20
2018-12-19T23:59:43.474Z,6.10
